^^
Datos históricos de la estación: Murcia-Puente Tocinos
Diario Informe para Diciembre 04, 2021 Unidades:  Ambas    Ingés   Métrico
Diario Semanal Mensual Anual
  Máxima: Mínima: Promedio:
Temperatura: 68 °F /  20 °C 45.9 °F /  7.7 °C 55.6 °F /  13.1 °C
Punto de rocio: 41.9 °F /  5.5 °C 36 °F /  2.2 °C 38.8 °F /  3.8 °C
Humedad: 69% 35% 54%
Velocidad viento: 10mph /  16.1km/h - 4.7mph /  7.5km/h
Racha viento: 19.6mph /  31.5km/h - -
Viento- - SSO
Presión: 30.2 in /  1022.7 hPa 30.1 in /  1017.6 hPa -
Precipitación: 0 in /  0.0 mm    
 
 
Tabla de datos para Diciembre 04, 2021
Hora Temperatura Punto de rocio Presión Viento Velocidad viento Racha viento Humedad Intensidad lluvia(por hora) Nubes
00:04 52.3 °F /  11.3 °C 37 °F /  2.8 °C 30.2in /  1022.7hPa Oeste 3.1mph /  5km/h 2.3mph /  3.7km/h 56% 0in /  0.0mm
00:09 52.2 °F /  11.2 °C 37.4 °F /  3 °C 30.2in /  1022.7hPa SSO 2.9mph /  4.6km/h 4.6mph /  7.4km/h 56.9% 0in /  0.0mm
00:14 52.2 °F /  11.2 °C 37.4 °F /  3 °C 30.2in /  1022.7hPa SE 1.8mph /  2.9km/h 7.4mph /  11.9km/h 57.1% 0in /  0.0mm
00:19 52 °F /  11.1 °C 37.6 °F /  3.1 °C 30.2in /  1022.7hPa SE 2.2mph /  3.6km/h 5.8mph /  9.3km/h 58% 0in /  0.0mm
00:24 51.6 °F /  10.9 °C 37.4 °F /  3 °C 30.2in /  1022.7hPa SSE 4mph /  6.4km/h 4.7mph /  7.6km/h 58.3% 0in /  0.0mm
00:29 51.3 °F /  10.7 °C 37.6 °F /  3.1 °C 30.2in /  1022.7hPa SSE 4mph /  6.4km/h 7.4mph /  11.9km/h 59.2% 0in /  0.0mm
00:34 50.9 °F /  10.5 °C 37.6 °F /  3.1 °C 30.2in /  1022.5hPa SSE 4mph /  6.4km/h 8.1mph /  13km/h 60.2% 0in /  0.0mm
00:39 50.5 °F /  10.3 °C 37.6 °F /  3.1 °C 30.2in /  1022.5hPa Sur 4.3mph /  6.9km/h 9.2mph /  14.8km/h 61% 0in /  0.0mm
00:44 50.5 °F /  10.3 °C 37.6 °F /  3.1 °C 30.2in /  1022.5hPa Sur 5.4mph /  8.7km/h 6.9mph /  11.1km/h 61% 0in /  0.0mm
00:49 50.5 °F /  10.3 °C 37.6 °F /  3.1 °C 30.2in /  1022.5hPa SSE 5.2mph /  8.4km/h 6.9mph /  11.1km/h 61% 0in /  0.0mm
00:54 50.5 °F /  10.3 °C 37.6 °F /  3.1 °C 30.2in /  1022.5hPa Sur 4.3mph /  6.9km/h 7.4mph /  11.9km/h 61% 0in /  0.0mm
00:59 50.4 °F /  10.2 °C 37.4 °F /  3 °C 30.2in /  1022.5hPa SSO 4.5mph /  7.2km/h 7.4mph /  11.9km/h 61% 0in /  0.0mm
01:04 50.5 °F /  10.3 °C 37.6 °F /  3.1 °C 30.2in /  1022.4hPa SSO 5.2mph /  8.4km/h 6.9mph /  11.1km/h 61% 0in /  0.0mm
01:09 50.5 °F /  10.3 °C 37.6 °F /  3.1 °C 30.2in /  1022.4hPa SO 5mph /  8km/h 5.9mph /  9.5km/h 61% 0in /  0.0mm
01:14 50.5 °F /  10.3 °C 37.6 °F /  3.1 °C 30.2in /  1022.4hPa SO 4mph /  6.4km/h 5.8mph /  9.3km/h 61% 0in /  0.0mm
01:19 50.5 °F /  10.3 °C 37.6 °F /  3.1 °C 30.2in /  1022.4hPa Sur 3.8mph /  6.1km/h 5.2mph /  8.4km/h 61% 0in /  0.0mm
01:24 50.5 °F /  10.3 °C 37.6 °F /  3.1 °C 30.2in /  1022.4hPa SSE 2.9mph /  4.7km/h 5.9mph /  9.5km/h 61% 0in /  0.0mm
01:29 50.4 °F /  10.2 °C 37.6 °F /  3.1 °C 30.2in /  1022.4hPa SSE 3mph /  4.9km/h 6.2mph /  10km/h 61.3% 0in /  0.0mm
01:34 50.2 °F /  10.1 °C 37.6 °F /  3.1 °C 30.2in /  1022.3hPa SSE 3.6mph /  5.8km/h 5.9mph /  9.5km/h 62% 0in /  0.0mm
01:39 49.8 °F /  9.9 °C 37.6 °F /  3.1 °C 30.2in /  1022.3hPa SE 3.7mph /  6km/h 5.9mph /  9.5km/h 62.7% 0in /  0.0mm
01:44 49.5 °F /  9.7 °C 37.6 °F /  3.1 °C 30.2in /  1022.3hPa SE 4.3mph /  6.9km/h 6.9mph /  11.1km/h 63.4% 0in /  0.0mm
01:49 48.7 °F /  9.3 °C 37.4 °F /  3 °C 30.2in /  1022.2hPa SSE 4.3mph /  6.9km/h 7.4mph /  11.9km/h 64.8% 0in /  0.0mm
01:54 48.2 °F /  9 °C 37.4 °F /  3 °C 30.2in /  1022.2hPa Sur 4.3mph /  6.9km/h 8.1mph /  13km/h 66.1% 0in /  0.0mm
01:59 48 °F /  8.9 °C 37.6 °F /  3.1 °C 30.2in /  1022.0hPa SSO 4.6mph /  7.4km/h 7.4mph /  11.9km/h 67% 0in /  0.0mm
02:04 48 °F /  8.9 °C 37.6 °F /  3.1 °C 30.2in /  1022.0hPa SSO 5.2mph /  8.4km/h 6.2mph /  10km/h 67% 0in /  0.0mm
02:09 48.4 °F /  9.1 °C 37.8 °F /  3.2 °C 30.2in /  1022.1hPa Sur 5mph /  8km/h 6.9mph /  11.1km/h 66.4% 0in /  0.0mm
02:14 48.7 °F /  9.3 °C 37.6 °F /  3.1 °C 30.2in /  1022.1hPa Sur 4.3mph /  6.9km/h 9.2mph /  14.8km/h 65.5% 0in /  0.0mm
02:19 49.1 °F /  9.5 °C 37.6 °F /  3.1 °C 30.2in /  1022.1hPa SSO 4.6mph /  7.4km/h 9.7mph /  15.6km/h 64.4% 0in /  0.0mm
02:24 49.3 °F /  9.6 °C 37.4 °F /  3 °C 30.2in /  1022.2hPa SSO 5.4mph /  8.7km/h 8.1mph /  13km/h 63.2% 0in /  0.0mm
02:29 49.5 °F /  9.7 °C 37.4 °F /  3 °C 30.2in /  1022.2hPa SSO 5.5mph /  8.9km/h 10.4mph /  16.7km/h 63% 0in /  0.0mm
02:34 49.5 °F /  9.7 °C 37.2 °F /  2.9 °C 30.2in /  1022.2hPa SSO 5.9mph /  9.5km/h 9.2mph /  14.8km/h 63% 0in /  0.0mm
02:39 49.1 °F /  9.5 °C 37 °F /  2.8 °C 30.2in /  1022.2hPa SSO 5.9mph /  9.5km/h 10.4mph /  16.7km/h 63.2% 0in /  0.0mm
02:44 48.7 °F /  9.3 °C 37.2 °F /  2.9 °C 30.2in /  1022.1hPa Sur 5.9mph /  9.5km/h 8.1mph /  13km/h 64% 0in /  0.0mm
02:49 48.4 °F /  9.1 °C 37 °F /  2.8 °C 30.2in /  1022.1hPa SSE 5.8mph /  9.3km/h 9.2mph /  14.8km/h 64.6% 0in /  0.0mm
02:54 47.8 °F /  8.8 °C 36.9 °F /  2.7 °C 30.2in /  1022.1hPa Sur 5.4mph /  8.7km/h 8.1mph /  13km/h 65.8% 0in /  0.0mm
02:59 47.5 °F /  8.6 °C 37 °F /  2.8 °C 30.2in /  1022.1hPa SSE 5.4mph /  8.7km/h 8.1mph /  13km/h 66.9% 0in /  0.0mm
03:04 47.1 °F /  8.4 °C 37 °F /  2.8 °C 30.2in /  1022.1hPa SSE 5.4mph /  8.7km/h 7.4mph /  11.9km/h 67.5% 0in /  0.0mm
03:09 47.1 °F /  8.4 °C 37 °F /  2.8 °C 30.2in /  1022.1hPa Sur 5.2mph /  8.4km/h 7.4mph /  11.9km/h 68% 0in /  0.0mm
03:14 46.9 °F /  8.3 °C 37 °F /  2.8 °C 30.2in /  1022.0hPa SSO 4.7mph /  7.6km/h 6.9mph /  11.1km/h 68.2% 0in /  0.0mm
03:19 46.9 °F /  8.3 °C 37.2 °F /  2.9 °C 30.2in /  1022.0hPa SSO 4.6mph /  7.4km/h 5.9mph /  9.5km/h 69% 0in /  0.0mm
03:24 47.1 °F /  8.4 °C 37.4 °F /  3 °C 30.2in /  1022.2hPa SSO 4.3mph /  6.9km/h 8.1mph /  13km/h 68.6% 0in /  0.0mm
03:29 47.5 °F /  8.6 °C 37.4 °F /  3 °C 30.2in /  1022.2hPa SSO 4.4mph /  7.1km/h 7.4mph /  11.9km/h 67.8% 0in /  0.0mm
03:34 47.8 °F /  8.8 °C 37.4 °F /  3 °C 30.2in /  1022.2hPa SSO 4.7mph /  7.6km/h 10.4mph /  16.7km/h 66.8% 0in /  0.0mm
03:39 48.2 °F /  9 °C 37.4 °F /  3 °C 30.2in /  1022.2hPa SSO 4.9mph /  7.9km/h 8.1mph /  13km/h 65.9% 0in /  0.0mm
03:44 48.6 °F /  9.2 °C 37.2 °F /  2.9 °C 30.2in /  1022.1hPa SSO 5.4mph /  8.7km/h 9.2mph /  14.8km/h 64.9% 0in /  0.0mm
03:49 48.7 °F /  9.3 °C 37.2 °F /  2.9 °C 30.2in /  1022.1hPa SSO 5.5mph /  8.9km/h 9.2mph /  14.8km/h 64% 0in /  0.0mm
03:54 48.9 °F /  9.4 °C 37 °F /  2.8 °C 30.2in /  1022.1hPa SSO 5.9mph /  9.5km/h 8.1mph /  13km/h 63.4% 0in /  0.0mm
03:59 49.1 °F /  9.5 °C 37 °F /  2.8 °C 30.2in /  1022.1hPa SO 5.8mph /  9.3km/h 9.2mph /  14.8km/h 63% 0in /  0.0mm
04:04 49.1 °F /  9.5 °C 37 °F /  2.8 °C 30.2in /  1022.1hPa SSO 5.4mph /  8.7km/h 9.7mph /  15.6km/h 63% 0in /  0.0mm
04:09 49.1 °F /  9.5 °C 37 °F /  2.8 °C 30.2in /  1022.1hPa SSO 5.6mph /  9km/h 9.2mph /  14.8km/h 63% 0in /  0.0mm
04:14 48.9 °F /  9.4 °C 36.9 °F /  2.7 °C 30.2in /  1022.0hPa SSO 6.2mph /  10km/h 8.1mph /  13km/h 63% 0in /  0.0mm
04:19 48.9 °F /  9.4 °C 36.9 °F /  2.7 °C 30.2in /  1022.0hPa Sur 5.8mph /  9.3km/h 6.9mph /  11.1km/h 63% 0in /  0.0mm
04:24 48.7 °F /  9.3 °C 36.9 °F /  2.7 °C 30.2in /  1022.0hPa SSO 4.7mph /  7.6km/h 9.2mph /  14.8km/h 63% 0in /  0.0mm
04:29 48.7 °F /  9.3 °C 36.7 °F /  2.6 °C 30.2in /  1021.9hPa SSO 4.6mph /  7.4km/h 9.2mph /  14.8km/h 63% 0in /  0.0mm
04:34 48.7 °F /  9.3 °C 36.7 °F /  2.6 °C 30.2in /  1021.9hPa SSO 4.3mph /  6.9km/h 7.4mph /  11.9km/h 63% 0in /  0.0mm
04:39 48.7 °F /  9.3 °C 36.7 °F /  2.6 °C 30.2in /  1022.0hPa SSO 4.4mph /  7.1km/h 8.1mph /  13km/h 63% 0in /  0.0mm
04:44 48.6 °F /  9.2 °C 36.5 °F /  2.5 °C 30.2in /  1022.0hPa SSO 4.7mph /  7.6km/h 9.2mph /  14.8km/h 63% 0in /  0.0mm
04:49 48.6 °F /  9.2 °C 36.5 °F /  2.5 °C 30.2in /  1022.0hPa SSO 5.1mph /  8.2km/h 11.4mph /  18.3km/h 63% 0in /  0.0mm
04:54 48.6 °F /  9.2 °C 36.5 °F /  2.5 °C 30.2in /  1022.0hPa SSO 6.2mph /  10km/h 11.8mph /  19km/h 63% 0in /  0.0mm
04:59 48.7 °F /  9.3 °C 36.7 °F /  2.6 °C 30.2in /  1021.9hPa SSO 6.4mph /  10.3km/h 11.5mph /  18.5km/h 63% 0in /  0.0mm
05:04 48.9 °F /  9.4 °C 36.5 °F /  2.5 °C 30.2in /  1021.9hPa SSO 6.9mph /  11.1km/h 11.5mph /  18.5km/h 62.1% 0in /  0.0mm
05:09 48.9 °F /  9.4 °C 36.5 °F /  2.5 °C 30.2in /  1021.9hPa SSO 6.8mph /  10.9km/h 10.4mph /  16.7km/h 62% 0in /  0.0mm
05:14 48.7 °F /  9.3 °C 36.3 °F /  2.4 °C 30.2in /  1021.8hPa SSO 6.4mph /  10.3km/h 8.1mph /  13km/h 62.2% 0in /  0.0mm
05:19 48.6 °F /  9.2 °C 36.5 °F /  2.5 °C 30.2in /  1021.8hPa SO 5.9mph /  9.5km/h 6.2mph /  10km/h 63% 0in /  0.0mm
05:24 48.4 °F /  9.1 °C 36.5 °F /  2.5 °C 30.2in /  1021.8hPa SO 4.7mph /  7.6km/h 8.7mph /  14km/h 63% 0in /  0.0mm
05:29 48.2 °F /  9 °C 36.5 °F /  2.5 °C 30.2in /  1021.8hPa SO 4.5mph /  7.3km/h 9.2mph /  14.8km/h 63.8% 0in /  0.0mm
05:34 48 °F /  8.9 °C 36.3 °F /  2.4 °C 30.2in /  1021.8hPa SO 4mph /  6.4km/h 9.2mph /  14.8km/h 64% 0in /  0.0mm
05:39 48 °F /  8.9 °C 36.3 °F /  2.4 °C 30.2in /  1021.8hPa SO 4.3mph /  6.9km/h 10.4mph /  16.7km/h 64% 0in /  0.0mm
05:44 48 °F /  8.9 °C 36.3 °F /  2.4 °C 30.2in /  1021.8hPa SO 5.2mph /  8.4km/h 11.5mph /  18.5km/h 64% 0in /  0.0mm
05:49 47.8 °F /  8.8 °C 36.3 °F /  2.4 °C 30.2in /  1021.8hPa SO 5.1mph /  8.2km/h 6.9mph /  11.1km/h 64% 0in /  0.0mm
05:54 47.8 °F /  8.8 °C 36.1 °F /  2.3 °C 30.2in /  1021.8hPa SO 4.7mph /  7.6km/h 5.9mph /  9.5km/h 64% 0in /  0.0mm
05:59 47.7 °F /  8.7 °C 36.5 °F /  2.5 °C 30.2in /  1021.7hPa Sur 4.2mph /  6.8km/h 5.8mph /  9.3km/h 65% 0in /  0.0mm
06:04 47.5 °F /  8.6 °C 36.3 °F /  2.4 °C 30.2in /  1021.7hPa SSE 3.1mph /  5km/h 6.9mph /  11.1km/h 65% 0in /  0.0mm
06:09 47.1 °F /  8.4 °C 36.1 °F /  2.3 °C 30.2in /  1021.7hPa Sur 3.5mph /  5.7km/h 7.4mph /  11.9km/h 65.7% 0in /  0.0mm
06:14 46.9 °F /  8.3 °C 36.1 °F /  2.3 °C 30.2in /  1021.6hPa SSO 4.7mph /  7.6km/h 7.6mph /  12.2km/h 66% 0in /  0.0mm
06:19 46.9 °F /  8.3 °C 36.3 °F /  2.4 °C 30.2in /  1021.6hPa SSO 4.8mph /  7.8km/h 8.1mph /  13km/h 66.3% 0in /  0.0mm
06:24 46.9 °F /  8.3 °C 36.1 °F /  2.3 °C 30.2in /  1021.7hPa SSO 5.2mph /  8.4km/h 6.2mph /  10km/h 66% 0in /  0.0mm
06:29 46.9 °F /  8.3 °C 36.1 °F /  2.3 °C 30.2in /  1021.7hPa SO 4.9mph /  7.9km/h 6.9mph /  11.1km/h 66% 0in /  0.0mm
06:34 47.1 °F /  8.4 °C 36.3 °F /  2.4 °C 30.2in /  1021.7hPa SSO 4mph /  6.4km/h 6.9mph /  11.1km/h 66% 0in /  0.0mm
06:39 47.1 °F /  8.4 °C 36.3 °F /  2.4 °C 30.2in /  1021.8hPa SSO 4.2mph /  6.7km/h 8.1mph /  13km/h 66% 0in /  0.0mm
06:44 47.1 °F /  8.4 °C 36.1 °F /  2.3 °C 30.2in /  1021.8hPa SSO 4.7mph /  7.6km/h 10.7mph /  17.2km/h 65.5% 0in /  0.0mm
06:49 47.1 °F /  8.4 °C 36.1 °F /  2.3 °C 30.2in /  1021.8hPa SSO 5.1mph /  8.2km/h 11.4mph /  18.3km/h 65.2% 0in /  0.0mm
06:54 47.1 °F /  8.4 °C 36.3 °F /  2.4 °C 30.2in /  1021.8hPa SSO 6.4mph /  10.3km/h 11.5mph /  18.5km/h 66% 0in /  0.0mm
06:59 46.9 °F /  8.3 °C 36.1 °F /  2.3 °C 30.2in /  1021.7hPa SO 6.3mph /  10.2km/h 8.1mph /  13km/h 66% 0in /  0.0mm
07:04 46.9 °F /  8.3 °C 36.1 °F /  2.3 °C 30.2in /  1021.7hPa SO 6.2mph /  10km/h 6.9mph /  11.1km/h 66% 0in /  0.0mm
07:09 46.8 °F /  8.2 °C 36.1 °F /  2.3 °C 30.2in /  1021.9hPa SSO 5.7mph /  9.2km/h 8.5mph /  13.7km/h 66.2% 0in /  0.0mm
07:14 46.8 °F /  8.2 °C 36.3 °F /  2.4 °C 30.2in /  1021.9hPa SSO 4.3mph /  6.9km/h 9.2mph /  14.8km/h 67% 0in /  0.0mm
07:19 46.6 °F /  8.1 °C 36.1 °F /  2.3 °C 30.2in /  1021.9hPa SSO 4.7mph /  7.6km/h 10.4mph /  16.7km/h 67% 0in /  0.0mm
07:24 46.4 °F /  8 °C 36.1 °F /  2.3 °C 30.2in /  1022.0hPa SSO 6.2mph /  10km/h 10mph /  16.1km/h 67% 0in /  0.0mm
07:29 46.2 °F /  7.9 °C 36.1 °F /  2.3 °C 30.2in /  1022.0hPa SSO 6.2mph /  10km/h 10.7mph /  17.2km/h 67.6% 0in /  0.0mm
07:34 46.2 °F /  7.9 °C 36.1 °F /  2.3 °C 30.2in /  1022.0hPa SSO 6.2mph /  10km/h 10.4mph /  16.7km/h 68% 0in /  0.0mm
07:39 46 °F /  7.8 °C 36.1 °F /  2.3 °C 30.2in /  1022.0hPa SSO 6.2mph /  9.9km/h 8.1mph /  13km/h 68% 0in /  0.0mm
07:44 46 °F /  7.8 °C 36.1 °F /  2.3 °C 30.2in /  1022.0hPa SSO 5.9mph /  9.5km/h 8.5mph /  13.7km/h 68% 0in /  0.0mm
07:49 46 °F /  7.8 °C 36.1 °F /  2.3 °C 30.2in /  1022.0hPa SSO 5.8mph /  9.3km/h 8.5mph /  13.7km/h 68% 0in /  0.0mm
07:54 46.2 °F /  7.9 °C 36.1 °F /  2.3 °C 30.2in /  1022.0hPa SO 5.4mph /  8.7km/h 8.1mph /  13km/h 67.9% 0in /  0.0mm
07:59 46.4 °F /  8 °C 36 °F /  2.2 °C 30.2in /  1021.9hPa OSO 5.3mph /  8.6km/h 9.2mph /  14.8km/h 67% 0in /  0.0mm
08:04 46.4 °F /  8 °C 36 °F /  2.2 °C 30.2in /  1021.9hPa OSO 5.2mph /  8.4km/h 6.9mph /  11.1km/h 67% 0in /  0.0mm
08:09 46.2 °F /  7.9 °C 36 °F /  2.2 °C 30.2in /  1022.0hPa OSO 5mph /  8km/h 6.2mph /  10km/h 67% 0in /  0.0mm
08:14 46.2 °F /  7.9 °C 36.1 °F /  2.3 °C 30.2in /  1022.0hPa OSO 4.3mph /  6.9km/h 6.2mph /  10km/h 67.6% 0in /  0.0mm
08:19 46.2 °F /  7.9 °C 36.1 °F /  2.3 °C 30.2in /  1022.0hPa OSO 4.1mph /  6.6km/h 5.9mph /  9.5km/h 67.8% 0in /  0.0mm
08:24 46 °F /  7.8 °C 36 °F /  2.2 °C 30.2in /  1022.1hPa Oeste 3.6mph /  5.8km/h 4.7mph /  7.6km/h 67.5% 0in /  0.0mm
08:29 45.9 °F /  7.7 °C 36 °F /  2.2 °C 30.2in /  1022.1hPa OSO 3.5mph /  5.6km/h 4.7mph /  7.6km/h 68% 0in /  0.0mm
08:34 45.9 °F /  7.7 °C 36.1 °F /  2.3 °C 30.2in /  1022.1hPa OSO 3.1mph /  5km/h 4.6mph /  7.4km/h 68.8% 0in /  0.0mm
08:39 45.9 °F /  7.7 °C 36.3 °F /  2.4 °C 30.2in /  1022.2hPa Sur 3mph /  4.9km/h 5.8mph /  9.3km/h 69% 0in /  0.0mm
08:44 46.4 °F /  8 °C 36.5 °F /  2.5 °C 30.2in /  1022.2hPa SSE 2.9mph /  4.7km/h 5.2mph /  8.4km/h 68.3% 0in /  0.0mm
08:49 46.6 °F /  8.1 °C 36.3 °F /  2.4 °C 30.2in /  1022.2hPa Sur 3.1mph /  5km/h 6.4mph /  10.3km/h 67.2% 0in /  0.0mm
08:54 46.8 °F /  8.2 °C 36.3 °F /  2.4 °C 30.2in /  1022.2hPa Sur 3.6mph /  5.8km/h 7.4mph /  11.9km/h 67% 0in /  0.0mm
08:59 46.8 °F /  8.2 °C 36.3 °F /  2.4 °C 30.2in /  1022.1hPa SSO 3.9mph /  6.3km/h 6.9mph /  11.1km/h 67% 0in /  0.0mm
09:04 46.8 °F /  8.2 °C 36.3 °F /  2.4 °C 30.2in /  1022.1hPa SSO 4.7mph /  7.6km/h 5.8mph /  9.3km/h 67% 0in /  0.0mm
09:09 46.8 °F /  8.2 °C 36.3 °F /  2.4 °C 30.2in /  1022.1hPa SO 4.4mph /  7.1km/h 6.9mph /  11.1km/h 67% 0in /  0.0mm
09:14 46.9 °F /  8.3 °C 36.5 °F /  2.5 °C 30.2in /  1022.1hPa SO 3.6mph /  5.8km/h 6.9mph /  11.1km/h 67% 0in /  0.0mm
09:19 47.1 °F /  8.4 °C 36.3 °F /  2.4 °C 30.2in /  1022.1hPa OSO 3.7mph /  6km/h 5.8mph /  9.3km/h 66.1% 0in /  0.0mm
09:24 47.5 °F /  8.6 °C 36.7 °F /  2.6 °C 30.2in /  1022.2hPa SO 4mph /  6.4km/h 6.9mph /  11.1km/h 66% 0in /  0.0mm
09:29 47.7 °F /  8.7 °C 36.9 °F /  2.7 °C 30.2in /  1022.2hPa SO 3.9mph /  6.3km/h 5.9mph /  9.5km/h 66% 0in /  0.0mm
09:34 47.8 °F /  8.8 °C 36.7 °F /  2.6 °C 30.2in /  1022.2hPa SO 3.6mph /  5.8km/h 7.4mph /  11.9km/h 65.4% 0in /  0.0mm
09:39 48 °F /  8.9 °C 36.9 °F /  2.7 °C 30.2in /  1022.3hPa SSO 3.8mph /  6.1km/h 7.4mph /  11.9km/h 65% 0in /  0.0mm
09:44 48.6 °F /  9.2 °C 36.9 °F /  2.7 °C 30.2in /  1022.3hPa Sur 4.3mph /  6.9km/h 8.1mph /  13km/h 64.1% 0in /  0.0mm
09:49 48.7 °F /  9.3 °C 37 °F /  2.8 °C 30.2in /  1022.3hPa Sur 4.6mph /  7.4km/h 8.1mph /  13km/h 63.8% 0in /  0.0mm
09:54 48.9 °F /  9.4 °C 37 °F /  2.8 °C 30.2in /  1022.3hPa SSO 5.4mph /  8.7km/h 9.2mph /  14.8km/h 63.2% 0in /  0.0mm
09:59 49.1 °F /  9.5 °C 37.4 °F /  3 °C 30.2in /  1022.3hPa SSO 5.3mph /  8.6km/h 6.9mph /  11.1km/h 63.6% 0in /  0.0mm
10:04 49.5 °F /  9.7 °C 37.4 °F /  3 °C 30.2in /  1022.3hPa SSO 5.2mph /  8.4km/h 9.7mph /  15.6km/h 63.2% 0in /  0.0mm
10:09 49.6 °F /  9.8 °C 37.6 °F /  3.1 °C 30.2in /  1022.4hPa SSO 5.1mph /  8.2km/h 6.9mph /  11.1km/h 63% 0in /  0.0mm
10:14 50 °F /  10 °C 37.6 °F /  3.1 °C 30.2in /  1022.4hPa SSO 4.7mph /  7.6km/h 7.4mph /  11.9km/h 62.5% 0in /  0.0mm
10:19 50.4 °F /  10.2 °C 37.8 °F /  3.2 °C 30.2in /  1022.4hPa SSO 4.6mph /  7.4km/h 6.2mph /  10km/h 62% 0in /  0.0mm
10:24 50.7 °F /  10.4 °C 38.1 °F /  3.4 °C 30.2in /  1022.5hPa SSO 4.3mph /  6.9km/h 8.5mph /  13.7km/h 61.8% 0in /  0.0mm
10:29 51.3 °F /  10.7 °C 38.1 °F /  3.4 °C 30.2in /  1022.5hPa SSO 4.5mph /  7.3km/h 9.2mph /  14.8km/h 60.7% 0in /  0.0mm
10:34 51.4 °F /  10.8 °C 37.9 °F /  3.3 °C 30.2in /  1022.5hPa SSO 5.2mph /  8.4km/h 10.7mph /  17.2km/h 59.8% 0in /  0.0mm
10:39 51.8 °F /  11 °C 38.1 °F /  3.4 °C 30.2in /  1022.5hPa SSO 5.2mph /  8.4km/h 9.2mph /  14.8km/h 59.7% 0in /  0.0mm
10:44 52.2 °F /  11.2 °C 38.1 °F /  3.4 °C 30.2in /  1022.3hPa SSO 5.2mph /  8.4km/h 8.1mph /  13km/h 58.4% 0in /  0.0mm
10:49 52.5 °F /  11.4 °C 37.9 °F /  3.3 °C 30.2in /  1022.3hPa Sur 5.3mph /  8.6km/h 8.5mph /  13.7km/h 57.6% 0in /  0.0mm
10:54 53.1 °F /  11.7 °C 37.9 °F /  3.3 °C 30.2in /  1022.3hPa Sur 5.9mph /  9.5km/h 9.2mph /  14.8km/h 56.4% 0in /  0.0mm
10:59 53.4 °F /  11.9 °C 37.9 °F /  3.3 °C 30.2in /  1022.1hPa SSO 5.9mph /  9.5km/h 9.2mph /  14.8km/h 55.6% 0in /  0.0mm
11:04 54 °F /  12.2 °C 38.1 °F /  3.4 °C 30.2in /  1022.1hPa Sur 5.9mph /  9.5km/h 8.1mph /  13km/h 55% 0in /  0.0mm
11:09 54.1 °F /  12.3 °C 37.9 °F /  3.3 °C 30.2in /  1022.1hPa Sur 5.7mph /  9.2km/h 7.4mph /  11.9km/h 53.9% 0in /  0.0mm
11:14 54.7 °F /  12.6 °C 37.9 °F /  3.3 °C 30.2in /  1021.8hPa SSO 5.2mph /  8.4km/h 6.9mph /  11.1km/h 53% 0in /  0.0mm
11:19 55 °F /  12.8 °C 38.3 °F /  3.5 °C 30.2in /  1021.8hPa SSO 5mph /  8km/h 6.9mph /  11.1km/h 53% 0in /  0.0mm
11:24 55.4 °F /  13 °C 38.1 °F /  3.4 °C 30.2in /  1021.8hPa SO 4.3mph /  6.9km/h 8.5mph /  13.7km/h 52.2% 0in /  0.0mm
11:29 55.8 °F /  13.2 °C 38.3 °F /  3.5 °C 30.2in /  1021.6hPa SO 4.3mph /  6.9km/h 7.4mph /  11.9km/h 51.7% 0in /  0.0mm
11:34 55.9 °F /  13.3 °C 37.8 °F /  3.2 °C 30.2in /  1021.6hPa SSO 4.3mph /  6.9km/h 8.5mph /  13.7km/h 50.2% 0in /  0.0mm
11:39 56.3 °F /  13.5 °C 37.8 °F /  3.2 °C 30.2in /  1021.6hPa SSO 4.4mph /  7.1km/h 6.9mph /  11.1km/h 50% 0in /  0.0mm
11:44 56.5 °F /  13.6 °C 38.1 °F /  3.4 °C 30.2in /  1021.4hPa SO 4.7mph /  7.6km/h 6.9mph /  11.1km/h 50% 0in /  0.0mm
11:49 56.7 °F /  13.7 °C 38.1 °F /  3.4 °C 30.2in /  1021.4hPa SSO 4.6mph /  7.4km/h 8.1mph /  13km/h 49.6% 0in /  0.0mm
11:54 56.8 °F /  13.8 °C 38.1 °F /  3.4 °C 30.2in /  1021.4hPa SO 4.3mph /  6.9km/h 8.1mph /  13km/h 49.2% 0in /  0.0mm
11:59 57 °F /  13.9 °C 38.1 °F /  3.4 °C 30.2in /  1021.1hPa SSO 4.3mph /  6.9km/h 7.4mph /  11.9km/h 49.3% 0in /  0.0mm
12:04 57.6 °F /  14.2 °C 38.5 °F /  3.6 °C 30.2in /  1021.1hPa SSO 4.3mph /  6.9km/h 9.2mph /  14.8km/h 48.9% 0in /  0.0mm
12:09 57.6 °F /  14.2 °C 38.5 °F /  3.6 °C 30.2in /  1021.1hPa Sur 4.6mph /  7.4km/h 8.1mph /  13km/h 48.8% 0in /  0.0mm
12:14 57.7 °F /  14.3 °C 38.7 °F /  3.7 °C 30.2in /  1020.9hPa SSO 5.4mph /  8.7km/h 7.4mph /  11.9km/h 48.6% 0in /  0.0mm
12:19 58.3 °F /  14.6 °C 38.5 °F /  3.6 °C 30.2in /  1020.9hPa SO 5.1mph /  8.2km/h 7.4mph /  11.9km/h 47.7% 0in /  0.0mm
12:24 58.5 °F /  14.7 °C 38.5 °F /  3.6 °C 30.2in /  1020.9hPa SSO 4.3mph /  6.9km/h 6.9mph /  11.1km/h 47.2% 0in /  0.0mm
12:29 58.6 °F /  14.8 °C 38.7 °F /  3.7 °C 30.1in /  1020.7hPa SSO 4.3mph /  6.9km/h 7.4mph /  11.9km/h 47.3% 0in /  0.0mm
12:34 59 °F /  15 °C 38.8 °F /  3.8 °C 30.1in /  1020.7hPa SSO 4.3mph /  6.9km/h 6.2mph /  10km/h 47.1% 0in /  0.0mm
12:39 59.4 °F /  15.2 °C 39 °F /  3.9 °C 30.1in /  1020.7hPa SSO 4.3mph /  6.9km/h 7.4mph /  11.9km/h 46.8% 0in /  0.0mm
12:44 59.5 °F /  15.3 °C 39.2 °F /  4 °C 30.1in /  1020.7hPa SSO 4.3mph /  6.9km/h 6.9mph /  11.1km/h 46.9% 0in /  0.0mm
12:49 59.7 °F /  15.4 °C 39 °F /  3.9 °C 30.1in /  1020.7hPa SO 4.3mph /  6.9km/h 8.7mph /  14km/h 46.3% 0in /  0.0mm
12:54 60.1 °F /  15.6 °C 39.2 °F /  4 °C 30.1in /  1020.7hPa SO 4.3mph /  6.9km/h 9.2mph /  14.8km/h 46% 0in /  0.0mm
12:59 60.4 °F /  15.8 °C 39.4 °F /  4.1 °C 30.1in /  1020.4hPa SSO 4.4mph /  7.1km/h 8.1mph /  13km/h 45.7% 0in /  0.0mm
13:04 60.8 °F /  16 °C 39.4 °F /  4.1 °C 30.1in /  1020.4hPa SSO 4.7mph /  7.6km/h 7.4mph /  11.9km/h 45% 0in /  0.0mm
13:09 61.3 °F /  16.3 °C 39.4 °F /  4.1 °C 30.1in /  1020.4hPa Sur 4.8mph /  7.8km/h 8.1mph /  13km/h 44.4% 0in /  0.0mm
13:14 61.7 °F /  16.5 °C 39.4 °F /  4.1 °C 30.1in /  1020.1hPa SSO 5.2mph /  8.4km/h 8.1mph /  13km/h 43.7% 0in /  0.0mm
13:19 62.1 °F /  16.7 °C 39.6 °F /  4.2 °C 30.1in /  1020.1hPa SSO 5mph /  8km/h 8.7mph /  14km/h 43.5% 0in /  0.0mm
13:24 62.1 °F /  16.7 °C 39.4 °F /  4.1 °C 30.1in /  1020.1hPa SSO 4.3mph /  6.9km/h 9.2mph /  14.8km/h 43% 0in /  0.0mm
13:29 62.1 °F /  16.7 °C 39.4 °F /  4.1 °C 30.1in /  1019.7hPa Sur 4.8mph /  7.7km/h 11.8mph /  19km/h 43% 0in /  0.0mm
13:34 62.2 °F /  16.8 °C 39.4 °F /  4.1 °C 30.1in /  1019.7hPa Sur 6.2mph /  10km/h 10.4mph /  16.7km/h 42.8% 0in /  0.0mm
13:39 62.2 °F /  16.8 °C 39 °F /  3.9 °C 30.1in /  1019.7hPa Sur 6.3mph /  10.1km/h 9.2mph /  14.8km/h 42.2% 0in /  0.0mm
13:44 62.4 °F /  16.9 °C 39.4 °F /  4.1 °C 30.1in /  1019.3hPa Sur 6.4mph /  10.3km/h 10mph /  16.1km/h 42.4% 0in /  0.0mm
13:49 62.8 °F /  17.1 °C 39 °F /  3.9 °C 30.1in /  1019.3hPa Sur 6.3mph /  10.2km/h 10.4mph /  16.7km/h 41.6% 0in /  0.0mm
13:54 63 °F /  17.2 °C 39.4 °F /  4.1 °C 30.1in /  1019.3hPa Sur 6.2mph /  10km/h 9.2mph /  14.8km/h 42% 0in /  0.0mm
13:59 63.1 °F /  17.3 °C 39.4 °F /  4.1 °C 30.1in /  1019.0hPa Sur 6.1mph /  9.8km/h 10.4mph /  16.7km/h 41.5% 0in /  0.0mm
14:04 63.5 °F /  17.5 °C 39.6 °F /  4.2 °C 30.1in /  1019.0hPa Sur 5.9mph /  9.5km/h 10.4mph /  16.7km/h 41.1% 0in /  0.0mm
14:09 63.7 °F /  17.6 °C 39.6 °F /  4.2 °C 30.1in /  1019.0hPa Sur 6.2mph /  9.9km/h 12.7mph /  20.4km/h 41% 0in /  0.0mm
14:14 63.9 °F /  17.7 °C 39.7 °F /  4.3 °C 30.1in /  1018.8hPa Sur 6.9mph /  11.1km/h 10.7mph /  17.2km/h 41% 0in /  0.0mm
14:19 64 °F /  17.8 °C 39.7 °F /  4.3 °C 30.1in /  1018.8hPa SSO 6.9mph /  11.1km/h 13.8mph /  22.2km/h 40.8% 0in /  0.0mm
14:24 64 °F /  17.8 °C 39.7 °F /  4.3 °C 30.1in /  1018.8hPa SSO 6.9mph /  11.1km/h 10.4mph /  16.7km/h 40.8% 0in /  0.0mm
14:29 64.4 °F /  18 °C 39.6 °F /  4.2 °C 30.1in /  1018.7hPa Sur 6.6mph /  10.7km/h 11.5mph /  18.5km/h 40.1% 0in /  0.0mm
14:34 64.6 °F /  18.1 °C 39.6 °F /  4.2 °C 30.1in /  1018.7hPa Sur 5.9mph /  9.5km/h 10.4mph /  16.7km/h 40% 0in /  0.0mm
14:39 64.8 °F /  18.2 °C 39.7 °F /  4.3 °C 30.1in /  1018.7hPa SSO 6.2mph /  9.9km/h 9.2mph /  14.8km/h 39.8% 0in /  0.0mm
14:44 64.9 °F /  18.3 °C 40.1 °F /  4.5 °C 30.1in /  1018.4hPa SSO 6.9mph /  11.1km/h 8.5mph /  13.7km/h 40% 0in /  0.0mm
14:49 65.3 °F /  18.5 °C 40.3 °F /  4.6 °C 30.1in /  1018.4hPa SO 6.5mph /  10.4km/h 9.2mph /  14.8km/h 40% 0in /  0.0mm
14:54 65.7 °F /  18.7 °C 39.9 °F /  4.4 °C 30.1in /  1018.4hPa SO 5.2mph /  8.4km/h 10.4mph /  16.7km/h 39.1% 0in /  0.0mm
14:59 65.8 °F /  18.8 °C 40.3 °F /  4.6 °C 30.1in /  1018.3hPa SSO 5.2mph /  8.4km/h 7.6mph /  12.2km/h 39% 0in /  0.0mm
15:04 66 °F /  18.9 °C 39.9 °F /  4.4 °C 30.1in /  1018.3hPa SSO 5.2mph /  8.4km/h 8.5mph /  13.7km/h 38.5% 0in /  0.0mm
15:09 66 °F /  18.9 °C 39.7 °F /  4.3 °C 30.1in /  1018.3hPa SSO 5.1mph /  8.2km/h 8.1mph /  13km/h 38% 0in /  0.0mm
15:14 66.4 °F /  19.1 °C 39.7 °F /  4.3 °C 30.1in /  1018.2hPa SO 4.7mph /  7.6km/h 10.7mph /  17.2km/h 37.7% 0in /  0.0mm
15:19 66.4 °F /  19.1 °C 40.1 °F /  4.5 °C 30.1in /  1018.2hPa SO 5mph /  8.1km/h 10.4mph /  16.7km/h 38% 0in /  0.0mm
15:24 66.6 °F /  19.2 °C 40.1 °F /  4.5 °C 30.1in /  1018.2hPa SO 5.9mph /  9.5km/h 8.5mph /  13.7km/h 38% 0in /  0.0mm
15:29 66.9 °F /  19.4 °C 39.9 °F /  4.4 °C 30.1in /  1018.0hPa SO 5.6mph /  9km/h 10.7mph /  17.2km/h 37.3% 0in /  0.0mm
15:34 66.9 °F /  19.4 °C 39.7 °F /  4.3 °C 30.1in /  1018.0hPa SO 4.7mph /  7.6km/h 9.7mph /  15.6km/h 37% 0in /  0.0mm
15:39 67.1 °F /  19.5 °C 39.6 °F /  4.2 °C 30.1in /  1018.0hPa SO 4.8mph /  7.8km/h 7.4mph /  11.9km/h 36.4% 0in /  0.0mm
15:44 67.5 °F /  19.7 °C 39.6 °F /  4.2 °C 30.1in /  1017.8hPa SSO 5.2mph /  8.4km/h 8.5mph /  13.7km/h 36% 0in /  0.0mm
15:49 67.5 °F /  19.7 °C 39.4 °F /  4.1 °C 30.1in /  1017.8hPa SSO 5mph /  8km/h 8.1mph /  13km/h 35.6% 0in /  0.0mm
15:54 67.6 °F /  19.8 °C 39.4 °F /  4.1 °C 30.1in /  1017.8hPa SSO 4.3mph /  6.9km/h 7.4mph /  11.9km/h 35.5% 0in /  0.0mm
15:59 67.8 °F /  19.9 °C 39.2 °F /  4 °C 30.1in /  1017.6hPa SSO 4mph /  6.4km/h 5.9mph /  9.5km/h 35.1% 0in /  0.0mm
16:04 68 °F /  20 °C 39.4 °F /  4.1 °C 30.1in /  1017.6hPa Sur 3.1mph /  5km/h 8.1mph /  13km/h 35% 0in /  0.0mm
16:09 68 °F /  20 °C 39.4 °F /  4.1 °C 30.1in /  1017.9hPa SO 3.4mph /  5.5km/h 7.4mph /  11.9km/h 35% 0in /  0.0mm
16:14 68 °F /  20 °C 39.2 °F /  4 °C 30.1in /  1017.9hPa SO 4.3mph /  6.9km/h 6.9mph /  11.1km/h 35% 0in /  0.0mm
16:19 67.8 °F /  19.9 °C 39.4 °F /  4.1 °C 30.1in /  1017.9hPa OSO 4.3mph /  6.9km/h 6.2mph /  10km/h 35.3% 0in /  0.0mm
16:24 67.5 °F /  19.7 °C 39.4 °F /  4.1 °C 30.1in /  1018.0hPa Oeste 4.3mph /  6.9km/h 13.8mph /  22.2km/h 35.8% 0in /  0.0mm
16:29 67.3 °F /  19.6 °C 39.4 °F /  4.1 °C 30.1in /  1018.0hPa Oeste 4.8mph /  7.7km/h 15.2mph /  24.5km/h 36% 0in /  0.0mm
16:34 67.3 °F /  19.6 °C 39.4 °F /  4.1 °C 30.1in /  1018.0hPa ONO 6.2mph /  10km/h 16.1mph /  25.9km/h 36% 0in /  0.0mm
16:39 66.9 °F /  19.4 °C 39.2 °F /  4 °C 30.1in /  1018.2hPa ONO 7.1mph /  11.5km/h 19.6mph /  31.5km/h 36.3% 0in /  0.0mm
16:44 66.7 °F /  19.3 °C 39.6 °F /  4.2 °C 30.1in /  1018.2hPa ONO 9.7mph /  15.6km/h 17.3mph /  27.8km/h 37% 0in /  0.0mm
16:49 66.6 °F /  19.2 °C 39.6 °F /  4.2 °C 30.1in /  1018.2hPa ONO 9.8mph /  15.7km/h 16.1mph /  25.9km/h 37% 0in /  0.0mm
16:54 66.6 °F /  19.2 °C 39.6 °F /  4.2 °C 30.1in /  1018.5hPa ONO 10mph /  16.1km/h 14mph /  22.5km/h 37.1% 0in /  0.0mm
16:59 66.6 °F /  19.2 °C 40.1 °F /  4.5 °C 30.1in /  1018.5hPa ONO 9.4mph /  15.1km/h 13.8mph /  22.2km/h 38% 0in /  0.0mm
17:04 66.6 °F /  19.2 °C 40.1 °F /  4.5 °C 30.1in /  1018.5hPa Oeste 8.1mph /  13km/h 11.5mph /  18.5km/h 38% 0in /  0.0mm
17:09 66.6 °F /  19.2 °C 40.1 °F /  4.5 °C 30.1in /  1018.5hPa Oeste 7.7mph /  12.4km/h 11.5mph /  18.5km/h 38% 0in /  0.0mm
17:14 66.6 °F /  19.2 °C 40.1 °F /  4.5 °C 30.1in /  1018.3hPa Oeste 6.4mph /  10.3km/h 11.2mph /  18km/h 38% 0in /  0.0mm
17:19 66.6 °F /  19.2 °C 40.1 °F /  4.5 °C 30.1in /  1018.3hPa OSO 6.2mph /  9.9km/h 11.5mph /  18.5km/h 38% 0in /  0.0mm
17:24 66.4 °F /  19.1 °C 40.5 °F /  4.7 °C 30.1in /  1018.4hPa OSO 5.4mph /  8.7km/h 13.7mph /  22km/h 38.6% 0in /  0.0mm
17:29 66.4 °F /  19.1 °C 40.6 °F /  4.8 °C 30.1in /  1018.4hPa OSO 5.4mph /  8.7km/h 16.3mph /  26.2km/h 38.8% 0in /  0.0mm
17:34 66.4 °F /  19.1 °C 40.6 °F /  4.8 °C 30.1in /  1018.4hPa Oeste 5.4mph /  8.7km/h 12.7mph /  20.4km/h 39% 0in /  0.0mm
17:39 66.2 °F /  19 °C 40.5 °F /  4.7 °C 30.1in /  1018.5hPa OSO 5.5mph /  8.9km/h 8.1mph /  13km/h 39% 0in /  0.0mm
17:44 66 °F /  18.9 °C 40.3 °F /  4.6 °C 30.1in /  1018.5hPa OSO 5.9mph /  9.5km/h 6.9mph /  11.1km/h 39% 0in /  0.0mm
17:49 65.8 °F /  18.8 °C 40.3 °F /  4.6 °C 30.1in /  1018.5hPa OSO 5.4mph /  8.7km/h 6.9mph /  11.1km/h 39.1% 0in /  0.0mm
17:54 65.7 °F /  18.7 °C 40.6 °F /  4.8 °C 30.1in /  1018.5hPa OSO 4mph /  6.4km/h 7.4mph /  11.9km/h 40% 0in /  0.0mm
17:59 65.5 °F /  18.6 °C 40.5 °F /  4.7 °C 30.1in /  1018.5hPa Oeste 4mph /  6.4km/h 5.2mph /  8.4km/h 40% 0in /  0.0mm
18:04 65.1 °F /  18.4 °C 40.8 °F /  4.9 °C 30.1in /  1018.5hPa Oeste 4mph /  6.4km/h 6.9mph /  11.1km/h 40.9% 0in /  0.0mm
18:09 64.9 °F /  18.3 °C 40.6 °F /  4.8 °C 30.1in /  1018.5hPa Oeste 4.1mph /  6.6km/h 9.2mph /  14.8km/h 41% 0in /  0.0mm
18:14 64.8 °F /  18.2 °C 41 °F /  5 °C 30.1in /  1018.4hPa Oeste 4.3mph /  6.9km/h 6.9mph /  11.1km/h 42% 0in /  0.0mm
18:19 64.4 °F /  18 °C 40.8 °F /  4.9 °C 30.1in /  1018.4hPa Oeste 4.2mph /  6.8km/h 5.8mph /  9.3km/h 42.2% 0in /  0.0mm
18:24 64 °F /  17.8 °C 41.2 °F /  5.1 °C 30.1in /  1018.5hPa NO 4mph /  6.4km/h 5.4mph /  8.7km/h 43% 0in /  0.0mm
18:29 63.9 °F /  17.7 °C 41 °F /  5 °C 30.1in /  1018.5hPa ONO 3.7mph /  6km/h 5.8mph /  9.3km/h 43% 0in /  0.0mm
18:34 63.9 °F /  17.7 °C 40.8 °F /  4.9 °C 30.1in /  1018.5hPa Oeste 3.1mph /  5km/h 8.5mph /  13.7km/h 43% 0in /  0.0mm
18:39 63.7 °F /  17.6 °C 41.2 °F /  5.1 °C 30.1in /  1018.5hPa OSO 3.4mph /  5.5km/h 6.9mph /  11.1km/h 44% 0in /  0.0mm
18:44 63.3 °F /  17.4 °C 41 °F /  5 °C 30.1in /  1018.5hPa OSO 4.3mph /  6.9km/h 8.1mph /  13km/h 44% 0in /  0.0mm
18:49 63.5 °F /  17.5 °C 41.2 °F /  5.1 °C 30.1in /  1018.5hPa Oeste 4.5mph /  7.3km/h 8.1mph /  13km/h 44% 0in /  0.0mm
18:54 63.3 °F /  17.4 °C 41 °F /  5 °C 30.1in /  1018.5hPa Oeste 5.2mph /  8.4km/h 7.4mph /  11.9km/h 44% 0in /  0.0mm
18:59 63.1 °F /  17.3 °C 41.4 °F /  5.2 °C 30.1in /  1018.3hPa OSO 4.8mph /  7.8km/h 6.9mph /  11.1km/h 45% 0in /  0.0mm
19:04 63 °F /  17.2 °C 41.4 °F /  5.2 °C 30.1in /  1018.3hPa OSO 4mph /  6.4km/h 11.5mph /  18.5km/h 45% 0in /  0.0mm
19:09 63 °F /  17.2 °C 41.4 °F /  5.2 °C 30.1in /  1018.5hPa OSO 4.3mph /  7km/h 8.1mph /  13km/h 45% 0in /  0.0mm
19:14 63 °F /  17.2 °C 41.4 °F /  5.2 °C 30.1in /  1018.5hPa OSO 5.4mph /  8.7km/h 8.7mph /  14km/h 45% 0in /  0.0mm
19:19 63.1 °F /  17.3 °C 41.4 °F /  5.2 °C 30.1in /  1018.5hPa OSO 5.4mph /  8.7km/h 9.2mph /  14.8km/h 45% 0in /  0.0mm
19:24 63 °F /  17.2 °C 41.5 °F /  5.3 °C 30.1in /  1018.6hPa OSO 5.4mph /  8.7km/h 9.2mph /  14.8km/h 45.3% 0in /  0.0mm
19:29 62.8 °F /  17.1 °C 41.7 °F /  5.4 °C 30.1in /  1018.6hPa OSO 5.2mph /  8.4km/h 9.2mph /  14.8km/h 46% 0in /  0.0mm
19:34 62.2 °F /  16.8 °C 41.5 °F /  5.3 °C 30.1in /  1018.6hPa OSO 4.7mph /  7.6km/h 6.9mph /  11.1km/h 46.6% 0in /  0.0mm
19:39 62.2 °F /  16.8 °C 41.7 °F /  5.4 °C 30.1in /  1018.7hPa OSO 4.6mph /  7.4km/h 5.8mph /  9.3km/h 47% 0in /  0.0mm
19:44 62.4 °F /  16.9 °C 41.9 °F /  5.5 °C 30.1in /  1018.7hPa OSO 4.3mph /  6.9km/h 5.8mph /  9.3km/h 47% 0in /  0.0mm
19:49 62.4 °F /  16.9 °C 41.9 °F /  5.5 °C 30.1in /  1018.7hPa Oeste 4mph /  6.4km/h 9.2mph /  14.8km/h 46.9% 0in /  0.0mm
19:54 62.6 °F /  17 °C 41.5 °F /  5.3 °C 30.1in /  1018.7hPa ONO 3.1mph /  5km/h 9.2mph /  14.8km/h 46% 0in /  0.0mm
19:59 62.8 °F /  17.1 °C 41.7 °F /  5.4 °C 30.1in /  1018.7hPa NO 3.2mph /  5.2km/h 5.8mph /  9.3km/h 46% 0in /  0.0mm
20:04 62.8 °F /  17.1 °C 41.7 °F /  5.4 °C 30.1in /  1018.7hPa NNE 3.6mph /  5.8km/h 4.6mph /  7.4km/h 46% 0in /  0.0mm
20:09 62.6 °F /  17 °C 41.5 °F /  5.3 °C 30.1in /  1018.8hPa NNE 3.3mph /  5.3km/h 4.6mph /  7.4km/h 46% 0in /  0.0mm
20:14 62.4 °F /  16.9 °C 41.4 °F /  5.2 °C 30.1in /  1018.8hPa NE 2.4mph /  3.9km/h 4.7mph /  7.6km/h 46% 0in /  0.0mm
20:19 62.4 °F /  16.9 °C 41.4 °F /  5.2 °C 30.1in /  1018.8hPa NNE 2.5mph /  4.1km/h 7.4mph /  11.9km/h 46.1% 0in /  0.0mm
20:24 62.2 °F /  16.8 °C 41.7 °F /  5.4 °C 30.1in /  1018.8hPa NNO 3.1mph /  5km/h 9.2mph /  14.8km/h 47% 0in /  0.0mm
20:29 62.1 °F /  16.7 °C 41.5 °F /  5.3 °C 30.1in /  1018.8hPa NO 3.4mph /  5.4km/h 9.2mph /  14.8km/h 47% 0in /  0.0mm
20:34 61.7 °F /  16.5 °C 41.7 °F /  5.4 °C 30.1in /  1018.8hPa Oeste 4mph /  6.4km/h 8.1mph /  13km/h 47.9% 0in /  0.0mm
20:39 61.5 °F /  16.4 °C 41.5 °F /  5.3 °C 30.1in /  1018.8hPa NNO 3.7mph /  6km/h 5.9mph /  9.5km/h 48% 0in /  0.0mm
20:44 61.2 °F /  16.2 °C 41.5 °F /  5.3 °C 30.1in /  1018.8hPa North 2.9mph /  4.7km/h 8.1mph /  13km/h 48.7% 0in /  0.0mm
20:49 60.6 °F /  15.9 °C 41.5 °F /  5.3 °C 30.1in /  1018.8hPa NNO 3.2mph /  5.2km/h 8.5mph /  13.7km/h 49.4% 0in /  0.0mm
20:54 60.4 °F /  15.8 °C 41.7 °F /  5.4 °C 30.1in /  1018.9hPa NO 4.3mph /  6.9km/h 9.2mph /  14.8km/h 50% 0in /  0.0mm
20:59 60.4 °F /  15.8 °C 41.7 °F /  5.4 °C 30.1in /  1018.9hPa ONO 4.7mph /  7.5km/h 11.5mph /  18.5km/h 50% 0in /  0.0mm
21:04 60.4 °F /  15.8 °C 41.7 °F /  5.4 °C 30.1in /  1018.9hPa NO 5.4mph /  8.7km/h 10.7mph /  17.2km/h 50% 0in /  0.0mm
21:09 60.4 °F /  15.8 °C 41.5 °F /  5.3 °C 30.1in /  1018.9hPa ONO 6mph /  9.6km/h 15.2mph /  24.5km/h 50% 0in /  0.0mm
21:14 60.6 °F /  15.9 °C 41.9 °F /  5.5 °C 30.1in /  1018.8hPa NO 7.6mph /  12.2km/h 10.4mph /  16.7km/h 50% 0in /  0.0mm
21:19 60.3 °F /  15.7 °C 41.5 °F /  5.3 °C 30.1in /  1018.8hPa NO 7mph /  11.3km/h 8.1mph /  13km/h 50.3% 0in /  0.0mm
21:24 59.5 °F /  15.3 °C 41.5 °F /  5.3 °C 30.1in /  1018.9hPa NO 5.4mph /  8.7km/h 8.5mph /  13.7km/h 51.1% 0in /  0.0mm
21:29 59.4 °F /  15.2 °C 41.7 °F /  5.4 °C 30.1in /  1018.9hPa ONO 5.1mph /  8.2km/h 8.1mph /  13km/h 52% 0in /  0.0mm
21:34 59.4 °F /  15.2 °C 41.7 °F /  5.4 °C 30.1in /  1018.9hPa SO 4.3mph /  6.9km/h 4.6mph /  7.4km/h 52% 0in /  0.0mm
21:39 59 °F /  15 °C 41.7 °F /  5.4 °C 30.1in /  1018.9hPa SSE 4mph /  6.4km/h 5.2mph /  8.4km/h 52.5% 0in /  0.0mm
21:44 58.5 °F /  14.7 °C 41.5 °F /  5.3 °C 30.1in /  1018.7hPa Sur 3.1mph /  5km/h 5.9mph /  9.5km/h 53.5% 0in /  0.0mm
21:49 57.9 °F /  14.4 °C 41.5 °F /  5.3 °C 30.1in /  1018.7hPa SSE 3.1mph /  5km/h 5.9mph /  9.5km/h 54.5% 0in /  0.0mm
21:54 57.6 °F /  14.2 °C 41.5 °F /  5.3 °C 30.1in /  1018.7hPa SSE 3.1mph /  5km/h 6.2mph /  10km/h 55% 0in /  0.0mm
21:59 57.4 °F /  14.1 °C 41.7 °F /  5.4 °C 30.1in /  1018.7hPa SSE 3mph /  4.9km/h 4.6mph /  7.4km/h 56% 0in /  0.0mm
22:04 57.2 °F /  14 °C 41.5 °F /  5.3 °C 30.1in /  1018.7hPa Sur 2.9mph /  4.7km/h 6.2mph /  10km/h 56% 0in /  0.0mm
22:09 57.2 °F /  14 °C 41.5 °F /  5.3 °C 30.1in /  1018.8hPa Sur 3.1mph /  5km/h 5.8mph /  9.3km/h 56% 0in /  0.0mm
22:14 57 °F /  13.9 °C 41.5 °F /  5.3 °C 30.1in /  1018.8hPa SSO 3.6mph /  5.8km/h 5.8mph /  9.3km/h 56% 0in /  0.0mm
22:19 57 °F /  13.9 °C 41.7 °F /  5.4 °C 30.1in /  1018.8hPa Sur 3.5mph /  5.6km/h 5.8mph /  9.3km/h 56.7% 0in /  0.0mm
22:24 56.8 °F /  13.8 °C 41.7 °F /  5.4 °C 30.1in /  1018.8hPa ONO 3.1mph /  5km/h 3.5mph /  5.6km/h 57% 0in /  0.0mm
22:29 56.5 °F /  13.6 °C 41.5 °F /  5.3 °C 30.1in /  1018.7hPa North 2.8mph /  4.5km/h 4.6mph /  7.4km/h 57.3% 0in /  0.0mm
22:34 56.1 °F /  13.4 °C 41.5 °F /  5.3 °C 30.1in /  1018.7hPa NNE 2mph /  3.2km/h 3.6mph /  5.8km/h 58% 0in /  0.0mm
22:39 55.9 °F /  13.3 °C 41.4 °F /  5.2 °C 30.1in /  1019.0hPa NNE 2mph /  3.2km/h 2.3mph /  3.7km/h 58% 0in /  0.0mm
22:44 55.9 °F /  13.3 °C 41.5 °F /  5.3 °C 30.1in /  1019.0hPa NNE 2mph /  3.2km/h 3.6mph /  5.8km/h 58.6% 0in /  0.0mm
22:49 55.8 °F /  13.2 °C 41.7 °F /  5.4 °C 30.1in /  1019.0hPa Este 2mph /  3.2km/h 4.6mph /  7.4km/h 59.1% 0in /  0.0mm
22:54 55.8 °F /  13.2 °C 41.9 °F /  5.5 °C 30.1in /  1019.2hPa ESE 2mph /  3.2km/h 5.9mph /  9.5km/h 59.4% 0in /  0.0mm
22:59 55.9 °F /  13.3 °C 41.7 °F /  5.4 °C 30.1in /  1019.2hPa SE 2.3mph /  3.7km/h 6.4mph /  10.3km/h 59% 0in /  0.0mm
23:04 55.9 °F /  13.3 °C 41.7 °F /  5.4 °C 30.1in /  1019.2hPa Oeste 3.1mph /  5km/h 6.9mph /  11.1km/h 59% 0in /  0.0mm
23:09 56.1 °F /  13.4 °C 41.9 °F /  5.5 °C 30.1in /  1019.2hPa Oeste 2.9mph /  4.7km/h 3.6mph /  5.8km/h 58.9% 0in /  0.0mm
23:14 56.3 °F /  13.5 °C 41.7 °F /  5.4 °C 30.1in /  1019.2hPa OSO 2.4mph /  3.9km/h 5.2mph /  8.4km/h 58% 0in /  0.0mm
23:19 56.1 °F /  13.4 °C 41.7 °F /  5.4 °C 30.1in /  1019.2hPa Oeste 2.5mph /  4.1km/h 4.6mph /  7.4km/h 58.5% 0in /  0.0mm
23:24 55.9 °F /  13.3 °C 41.7 °F /  5.4 °C 30.1in /  1019.2hPa OSO 2.9mph /  4.7km/h 4.7mph /  7.6km/h 58.8% 0in /  0.0mm
23:29 55.6 °F /  13.1 °C 41.5 °F /  5.3 °C 30.1in /  1019.2hPa SSO 2.9mph /  4.7km/h 4.7mph /  7.6km/h 59.4% 0in /  0.0mm
23:34 55 °F /  12.8 °C 41.5 °F /  5.3 °C 30.1in /  1019.2hPa Sur 2.9mph /  4.7km/h 3.5mph /  5.6km/h 60.2% 0in /  0.0mm
23:39 54.9 °F /  12.7 °C 41.7 °F /  5.4 °C 30.1in /  1019.5hPa Sur 2.6mph /  4.2km/h 2.4mph /  3.9km/h 61% 0in /  0.0mm
23:44 54.7 °F /  12.6 °C 41.5 °F /  5.3 °C 30.1in /  1019.5hPa SSE 1.8mph /  2.9km/h 4.6mph /  7.4km/h 61% 0in /  0.0mm
23:49 54.1 °F /  12.3 °C 41.5 °F /  5.3 °C 30.1in /  1019.5hPa SE 2mph /  3.2km/h 4.6mph /  7.4km/h 62.2% 0in /  0.0mm
23:54 54 °F /  12.2 °C 41.5 °F /  5.3 °C 30.1in /  1019.7hPa Sur 2.4mph /  3.9km/h 3.5mph /  5.6km/h 63% 0in /  0.0mm
23:59 54 °F /  12.2 °C 41.7 °F /  5.4 °C 30.1in /  1019.7hPa SO 2.2mph /  3.6km/h 4.7mph /  7.6km/h 63% 0in /  0.0mm
Murcia-Puente Tocinos, Espa?a
Compliments of Weather Underground - 3 mb

La estación de MeteoMurcia.com, publica sus datos en los siguientes proyectos:

Weather Underground PWS IMURCIAP2 Meteoclimatic www.awekas.at

W3Counter
Web Analytics